sensor_id;sensor_type;location;lat;lon;timestamp;pressure;altitude;pressure_sealevel;temperature;humidity
38780;BME280;29273;49.962;9.768;2022-11-09T00:01:35;99382.97;;;12.84;62.85
38780;BME280;29273;49.962;9.768;2022-11-09T00:04:02;99376.81;;;12.84;62.74
38780;BME280;29273;49.962;9.768;2022-11-09T00:06:29;99375.22;;;12.83;62.91
38780;BME280;29273;49.962;9.768;2022-11-09T00:08:55;99379.94;;;12.81;62.82
38780;BME280;29273;49.962;9.768;2022-11-09T00:11:20;99375.88;;;12.78;62.99
38780;BME280;29273;49.962;9.768;2022-11-09T00:13:46;99373.44;;;12.76;63.18
38780;BME280;29273;49.962;9.768;2022-11-09T00:16:14;99370.56;;;12.78;63.01
38780;BME280;29273;49.962;9.768;2022-11-09T00:18:40;99373.44;;;12.76;63.29
38780;BME280;29273;49.962;9.768;2022-11-09T00:21:16;99358.91;;;12.79;62.78
38780;BME280;29273;49.962;9.768;2022-11-09T00:23:43;99351.41;;;12.76;63.55
38780;BME280;29273;49.962;9.768;2022-11-09T00:26:10;99360.75;;;12.78;63.12
38780;BME280;29273;49.962;9.768;2022-11-09T00:28:37;99362.81;;;12.76;63.39
38780;BME280;29273;49.962;9.768;2022-11-09T00:31:05;99350.94;;;12.79;63.42
38780;BME280;29273;49.962;9.768;2022-11-09T00:33:31;99342.38;;;12.77;63.59
38780;BME280;29273;49.962;9.768;2022-11-09T00:35:56;99338.69;;;12.78;63.64
38780;BME280;29273;49.962;9.768;2022-11-09T00:38:22;99341.13;;;12.80;63.51
38780;BME280;29273;49.962;9.768;2022-11-09T00:40:48;99347.22;;;12.80;63.73
38780;BME280;29273;49.962;9.768;2022-11-09T00:43:14;99345.97;;;12.83;63.88
38780;BME280;29273;49.962;9.768;2022-11-09T00:45:40;99339.59;;;12.84;63.84
38780;BME280;29273;49.962;9.768;2022-11-09T00:48:06;99329.22;;;12.82;63.50
38780;BME280;29273;49.962;9.768;2022-11-09T00:50:32;99332.25;;;12.86;63.80
38780;BME280;29273;49.962;9.768;2022-11-09T00:52:59;99347.13;;;12.87;63.44
38780;BME280;29273;49.962;9.768;2022-11-09T00:55:25;99367.59;;;12.86;63.56
38780;BME280;29273;49.962;9.768;2022-11-09T00:57:52;99367.59;;;12.86;63.60
38780;BME280;29273;49.962;9.768;2022-11-09T01:00:20;99368.38;;;12.87;63.56
38780;BME280;29273;49.962;9.768;2022-11-09T01:02:48;99372.44;;;12.89;63.40
38780;BME280;29273;49.962;9.768;2022-11-09T01:05:14;99368.84;;;12.84;63.59
38780;BME280;29273;49.962;9.768;2022-11-09T01:07:40;99367.81;;;12.85;64.05
38780;BME280;29273;49.962;9.768;2022-11-09T01:10:07;99371.28;;;12.85;63.90
38780;BME280;29273;49.962;9.768;2022-11-09T01:12:32;99364.34;;;12.84;63.73
38780;BME280;29273;49.962;9.768;2022-11-09T01:14:58;99367.59;;;12.86;63.94
38780;BME280;29273;49.962;9.768;2022-11-09T01:17:24;99371.88;;;12.87;63.99
38780;BME280;29273;49.962;9.768;2022-11-09T01:19:50;99368.38;;;12.87;63.75
38780;BME280;29273;49.962;9.768;2022-11-09T01:22:16;99391.06;;;12.89;63.88
38780;BME280;29273;49.962;9.768;2022-11-09T01:24:43;99407.81;;;12.90;63.82
38780;BME280;29273;49.962;9.768;2022-11-09T01:27:09;99399.84;;;12.90;64.07
38780;BME280;29273;49.962;9.768;2022-11-09T01:29:35;99403.28;;;12.90;63.92
38780;BME280;29273;49.962;9.768;2022-11-09T01:32:02;99398.81;;;12.91;64.26
38780;BME280;29273;49.962;9.768;2022-11-09T01:34:30;99396.94;;;12.91;64.24
38780;BME280;29273;49.962;9.768;2022-11-09T01:36:55;99391.63;;;12.91;64.40
38780;BME280;29273;49.962;9.768;2022-11-09T01:39:21;99398.81;;;12.91;64.47
38780;BME280;29273;49.962;9.768;2022-11-09T01:41:47;99409.22;;;12.92;64.43
38780;BME280;29273;49.962;9.768;2022-11-09T01:44:17;99400.53;;;12.97;64.11
38780;BME280;29273;49.962;9.768;2022-11-09T01:46:59;99402.75;;;13.00;63.40
38780;BME280;29273;49.962;9.768;2022-11-09T01:49:57;99408.28;;;12.99;63.50
38780;BME280;29273;49.962;9.768;2022-11-09T01:52:30;99407.47;;;12.98;63.34
38780;BME280;29273;49.962;9.768;2022-11-09T01:55:09;99412.81;;;12.98;63.44
38780;BME280;29273;49.962;9.768;2022-11-09T01:57:43;99398.72;;;12.98;63.56
38780;BME280;29273;49.962;9.768;2022-11-09T02:00:12;99404.25;;;12.96;63.69
38780;BME280;29273;49.962;9.768;2022-11-09T02:02:48;99416.47;;;12.97;63.17
38780;BME280;29273;49.962;9.768;2022-11-09T02:05:21;99409.78;;;12.94;63.51
38780;BME280;29273;49.962;9.768;2022-11-09T02:07:51;99401.69;;;12.89;64.01
38780;BME280;29273;49.962;9.768;2022-11-09T02:10:34;99401.47;;;12.91;63.45
38780;BME280;29273;49.962;9.768;2022-11-09T02:13:04;99398.44;;;12.87;64.29
38780;BME280;29273;49.962;9.768;2022-11-09T02:15:36;99407.44;;;12.86;64.29
38780;BME280;29273;49.962;9.768;2022-11-09T02:18:03;99407.22;;;12.88;64.49
38780;BME280;29273;49.962;9.768;2022-11-09T02:20:28;99402.13;;;12.86;64.14
38780;BME280;29273;49.962;9.768;2022-11-09T02:22:54;99399.47;;;12.86;64.09
38780;BME280;29273;49.962;9.768;2022-11-09T02:25:20;99397.63;;;12.87;64.50
38780;BME280;29273;49.962;9.768;2022-11-09T02:27:48;99397.63;;;12.87;64.28
38780;BME280;29273;49.962;9.768;2022-11-09T02:30:14;99390.47;;;12.87;64.50
38780;BME280;29273;49.962;9.768;2022-11-09T02:32:40;99385.16;;;12.87;64.30
38780;BME280;29273;49.962;9.768;2022-11-09T02:35:06;99388.63;;;12.88;64.31
38780;BME280;29273;49.962;9.768;2022-11-09T02:37:41;99393.03;;;12.94;63.91
38780;BME280;29273;49.962;9.768;2022-11-09T02:40:19;99401.03;;;12.94;63.83
38780;BME280;29273;49.962;9.768;2022-11-09T02:42:45;99400.63;;;12.90;64.62
38780;BME280;29273;49.962;9.768;2022-11-09T02:45:11;99390.00;;;12.90;64.79
38780;BME280;29273;49.962;9.768;2022-11-09T02:47:38;99392.44;;;12.92;64.79
38780;BME280;29273;49.962;9.768;2022-11-09T02:50:04;99393.28;;;12.92;64.67
38780;BME280;29273;49.962;9.768;2022-11-09T02:52:30;99388.53;;;12.94;64.79
38780;BME280;29273;49.962;9.768;2022-11-09T02:54:56;99381.59;;;12.93;64.59
38780;BME280;29273;49.962;9.768;2022-11-09T02:57:21;99383.22;;;12.94;64.79
38780;BME280;29273;49.962;9.768;2022-11-09T02:59:48;99385.88;;;12.94;64.79
38780;BME280;29273;49.962;9.768;2022-11-09T03:02:14;99387.47;;;12.95;64.65
38780;BME280;29273;49.962;9.768;2022-11-09T03:04:39;99384.81;;;12.95;64.75
38780;BME280;29273;49.962;9.768;2022-11-09T03:07:06;99388.31;;;12.96;64.67
38780;BME280;29273;49.962;9.768;2022-11-09T03:09:32;99385.66;;;12.96;65.05
38780;BME280;29273;49.962;9.768;2022-11-09T03:11:58;99390.13;;;12.95;64.68
38780;BME280;29273;49.962;9.768;2022-11-09T03:14:23;99383.00;;;12.96;64.79
38780;BME280;29273;49.962;9.768;2022-11-09T03:16:53;99383.00;;;12.96;64.75
38780;BME280;29273;49.962;9.768;2022-11-09T03:19:18;99383.00;;;12.96;64.76
38780;BME280;29273;49.962;9.768;2022-11-09T03:21:46;99384.81;;;12.95;64.87
38780;BME280;29273;49.962;9.768;2022-11-09T03:24:12;99391.75;;;12.96;65.00
38780;BME280;29273;49.962;9.768;2022-11-09T03:26:38;99390.75;;;12.98;65.01
38780;BME280;29273;49.962;9.768;2022-11-09T03:29:04;99388.06;;;12.98;65.06
38780;BME280;29273;49.962;9.768;2022-11-09T03:31:30;99396.84;;;12.98;64.86
38780;BME280;29273;49.962;9.768;2022-11-09T03:34:00;99402.97;;;12.99;64.99
38780;BME280;29273;49.962;9.768;2022-11-09T03:36:26;99397.44;;;13.00;65.03
38780;BME280;29273;49.962;9.768;2022-11-09T03:38:51;99396.63;;;13.00;64.84
38780;BME280;29273;49.962;9.768;2022-11-09T03:41:17;99397.44;;;13.00;65.07
38780;BME280;29273;49.962;9.768;2022-11-09T03:43:42;99398.47;;;12.99;65.08
38780;BME280;29273;49.962;9.768;2022-11-09T03:46:08;99398.25;;;13.01;64.74
38780;BME280;29273;49.962;9.768;2022-11-09T03:48:33;99400.09;;;13.00;65.17
38780;BME280;29273;49.962;9.768;2022-11-09T03:50:59;99401.72;;;13.01;64.96
38780;BME280;29273;49.962;9.768;2022-11-09T03:53:24;99400.66;;;13.02;65.12
38780;BME280;29273;49.962;9.768;2022-11-09T03:55:50;99393.75;;;13.01;65.21
38780;BME280;29273;49.962;9.768;2022-11-09T03:58:15;99396.19;;;13.03;64.88
38780;BME280;29273;49.962;9.768;2022-11-09T04:00:41;99391.88;;;13.02;65.09
38780;BME280;29273;49.962;9.768;2022-11-09T04:03:06;99389.22;;;13.02;64.90
38780;BME280;29273;49.962;9.768;2022-11-09T04:05:32;99381.03;;;13.03;64.95
38780;BME280;29273;49.962;9.768;2022-11-09T04:07:57;99380.22;;;13.03;65.16
38780;BME280;29273;49.962;9.768;2022-11-09T04:10:24;99389.34;;;13.07;65.05
38780;BME280;29273;49.962;9.768;2022-11-09T04:12:50;99378.16;;;13.05;65.13
38780;BME280;29273;49.962;9.768;2022-11-09T04:15:16;99379.41;;;13.02;65.04
38780;BME280;29273;49.962;9.768;2022-11-09T04:17:41;99373.63;;;13.05;65.17
38780;BME280;29273;49.962;9.768;2022-11-09T04:20:09;99369.16;;;13.06;64.80
38780;BME280;29273;49.962;9.768;2022-11-09T04:22:35;99371.81;;;13.06;65.17
38780;BME280;29273;49.962;9.768;2022-11-09T04:25:02;99368.09;;;13.07;65.18
38780;BME280;29273;49.962;9.768;2022-11-09T04:27:28;99381.59;;;13.05;65.14
38780;BME280;29273;49.962;9.768;2022-11-09T04:29:54;99368.53;;;13.04;65.33
38780;BME280;29273;49.962;9.768;2022-11-09T04:32:20;99365.09;;;13.03;65.38
38780;BME280;29273;49.962;9.768;2022-11-09T04:34:45;99365.88;;;13.04;65.36
38780;BME280;29273;49.962;9.768;2022-11-09T04:37:11;99357.09;;;13.03;65.39
38780;BME280;29273;49.962;9.768;2022-11-09T04:39:36;99349.13;;;13.03;65.95
38780;BME280;29273;49.962;9.768;2022-11-09T04:42:02;99348.91;;;13.05;65.97
38780;BME280;29273;49.962;9.768;2022-11-09T04:44:28;99361.41;;;13.04;66.06
38780;BME280;29273;49.962;9.768;2022-11-09T04:46:54;99367.50;;;13.05;65.84
38780;BME280;29273;49.962;9.768;2022-11-09T04:49:19;99369.94;;;13.06;65.88
38780;BME280;29273;49.962;9.768;2022-11-09T04:51:45;99360.34;;;13.05;66.16
38780;BME280;29273;49.962;9.768;2022-11-09T04:54:10;99365.66;;;13.05;66.15
38780;BME280;29273;49.962;9.768;2022-11-09T04:56:36;99367.06;;;13.08;65.94
38780;BME280;29273;49.962;9.768;2022-11-09T04:59:01;99360.94;;;13.07;66.01
38780;BME280;29273;49.962;9.768;2022-11-09T05:01:27;99377.69;;;13.08;65.99
38780;BME280;29273;49.962;9.768;2022-11-09T05:03:52;99391.78;;;13.08;65.75
38780;BME280;29273;49.962;9.768;2022-11-09T05:06:18;99391.78;;;13.08;65.61
38780;BME280;29273;49.962;9.768;2022-11-09T05:09:04;99385.44;;;13.09;65.52
38780;BME280;29273;49.962;9.768;2022-11-09T05:11:30;99383.22;;;13.06;65.44
38780;BME280;29273;49.962;9.768;2022-11-09T05:13:56;99392.25;;;13.05;65.36
38780;BME280;29273;49.962;9.768;2022-11-09T05:16:22;99388.78;;;13.05;65.42
38780;BME280;29273;49.962;9.768;2022-11-09T05:18:49;99400.44;;;13.04;65.58
38780;BME280;29273;49.962;9.768;2022-11-09T05:21:15;99403.31;;;13.02;65.40
38780;BME280;29273;49.962;9.768;2022-11-09T05:23:41;99407.84;;;13.02;65.52
38780;BME280;29273;49.962;9.768;2022-11-09T05:28:50;99417.91;;;13.00;65.64
38780;BME280;29273;49.962;9.768;2022-11-09T05:31:17;99413.38;;;13.00;65.53
38780;BME280;29273;49.962;9.768;2022-11-09T05:33:43;99415.22;;;13.00;65.55
38780;BME280;29273;49.962;9.768;2022-11-09T05:36:08;99415.22;;;13.00;65.72
38780;BME280;29273;49.962;9.768;2022-11-09T05:38:34;99412.56;;;13.00;65.79
38780;BME280;29273;49.962;9.768;2022-11-09T05:40:59;99415.22;;;13.00;65.48
38780;BME280;29273;49.962;9.768;2022-11-09T05:43:25;99410.72;;;13.00;65.51
38780;BME280;29273;49.962;9.768;2022-11-09T05:45:50;99409.13;;;12.99;65.36
38780;BME280;29273;49.962;9.768;2022-11-09T05:48:16;99401.72;;;13.01;65.67
38780;BME280;29273;49.962;9.768;2022-11-09T05:50:43;99408.63;;;13.02;65.43
38780;BME280;29273;49.962;9.768;2022-11-09T05:53:23;99415.00;;;13.01;65.48
38780;BME280;29273;49.962;9.768;2022-11-09T05:55:49;99409.69;;;13.01;65.69
38780;BME280;29273;49.962;9.768;2022-11-09T05:58:14;99404.94;;;13.03;65.73
38780;BME280;29273;49.962;9.768;2022-11-09T06:00:39;99407.63;;;13.03;65.89
38780;BME280;29273;49.962;9.768;2022-11-09T06:03:07;99406.34;;;13.06;65.51
38780;BME280;29273;49.962;9.768;2022-11-09T06:05:35;99404.50;;;13.06;65.56
38780;BME280;29273;49.962;9.768;2022-11-09T06:08:09;99402.19;;;13.10;65.03
38780;BME280;29273;49.962;9.768;2022-11-09T06:10:35;99405.53;;;13.05;65.76
38780;BME280;29273;49.962;9.768;2022-11-09T06:13:01;99409.25;;;13.04;65.52
38780;BME280;29273;49.962;9.768;2022-11-09T06:15:26;99410.84;;;13.05;65.52
38780;BME280;29273;49.962;9.768;2022-11-09T06:17:56;99405.66;;;13.10;65.41
38780;BME280;29273;49.962;9.768;2022-11-09T06:20:22;99402.66;;;13.07;65.61
38780;BME280;29273;49.962;9.768;2022-11-09T06:22:56;99405.44;;;13.12;65.17
38780;BME280;29273;49.962;9.768;2022-11-09T06:25:22;99407.16;;;13.06;66.11
38780;BME280;29273;49.962;9.768;2022-11-09T06:27:48;99404.28;;;13.08;66.46
38780;BME280;29273;49.962;9.768;2022-11-09T06:30:14;99399.53;;;13.10;66.58
38780;BME280;29273;49.962;9.768;2022-11-09T06:32:41;99396.88;;;13.10;66.69
38780;BME280;29273;49.962;9.768;2022-11-09T06:35:07;99397.44;;;13.12;66.74
38780;BME280;29273;49.962;9.768;2022-11-09T06:37:33;99402.53;;;13.13;66.98
38780;BME280;29273;49.962;9.768;2022-11-09T06:39:58;99396.19;;;13.14;66.83
38780;BME280;29273;49.962;9.768;2022-11-09T06:42:24;99404.75;;;13.17;66.96
38780;BME280;29273;49.962;9.768;2022-11-09T06:44:49;99411.69;;;13.18;67.41
38780;BME280;29273;49.962;9.768;2022-11-09T06:47:15;99416.78;;;13.19;67.64
38780;BME280;29273;49.962;9.768;2022-11-09T06:49:40;99410.41;;;13.20;67.79
38780;BME280;29273;49.962;9.768;2022-11-09T06:52:06;99406.72;;;13.21;67.96
38780;BME280;29273;49.962;9.768;2022-11-09T06:54:31;99408.38;;;13.22;67.87
38780;BME280;29273;49.962;9.768;2022-11-09T06:56:59;99418.53;;;13.25;67.94
38780;BME280;29273;49.962;9.768;2022-11-09T06:59:24;99420.16;;;13.26;68.16
38780;BME280;29273;49.962;9.768;2022-11-09T07:01:52;99424.22;;;13.29;68.32
38780;BME280;29273;49.962;9.768;2022-11-09T07:04:18;99425.00;;;13.29;68.24
38780;BME280;29273;49.962;9.768;2022-11-09T07:06:43;99439.91;;;13.30;68.42
38780;BME280;29273;49.962;9.768;2022-11-09T07:09:09;99436.22;;;13.31;68.77
38780;BME280;29273;49.962;9.768;2022-11-09T07:11:35;99444.59;;;13.35;68.56
38780;BME280;29273;49.962;9.768;2022-11-09T07:14:01;99447.81;;;13.37;69.08
38780;BME280;29273;49.962;9.768;2022-11-09T07:16:30;99446.91;;;13.43;68.26
38780;BME280;29273;49.962;9.768;2022-11-09T07:18:56;99444.72;;;13.40;69.13
38780;BME280;29273;49.962;9.768;2022-11-09T07:21:22;99454.09;;;13.43;68.81
38780;BME280;29273;49.962;9.768;2022-11-09T07:23:48;99464.50;;;13.44;69.23
38780;BME280;29273;49.962;9.768;2022-11-09T07:26:14;99471.44;;;13.45;69.25
38780;BME280;29273;49.962;9.768;2022-11-09T07:28:39;99470.97;;;13.48;69.12
38780;BME280;29273;49.962;9.768;2022-11-09T07:31:05;99480.59;;;13.49;69.25
38780;BME280;29273;49.962;9.768;2022-11-09T07:33:31;99481.97;;;13.52;69.20
38780;BME280;29273;49.962;9.768;2022-11-09T07:35:59;99483.38;;;13.55;69.09
38780;BME280;29273;49.962;9.768;2022-11-09T07:38:25;99475.97;;;13.57;69.41
38780;BME280;29273;49.962;9.768;2022-11-09T07:40:50;99479.19;;;13.59;69.23
38780;BME280;29273;49.962;9.768;2022-11-09T07:43:16;99478.16;;;13.60;69.07
38780;BME280;29273;49.962;9.768;2022-11-09T07:45:47;99477.94;;;13.61;69.34
38780;BME280;29273;49.962;9.768;2022-11-09T07:48:13;99462.56;;;13.63;69.18
38780;BME280;29273;49.962;9.768;2022-11-09T07:50:39;99470.09;;;13.66;69.25
38780;BME280;29273;49.962;9.768;2022-11-09T07:53:06;99475.19;;;13.68;69.10
38780;BME280;29273;49.962;9.768;2022-11-09T07:55:32;99464.31;;;13.69;69.20
38780;BME280;29273;49.962;9.768;2022-11-09T07:58:00;99474.72;;;13.71;68.86
38780;BME280;29273;49.962;9.768;2022-11-09T08:00:28;99484.69;;;13.76;69.08
38780;BME280;29273;49.962;9.768;2022-11-09T08:02:54;99477.97;;;13.73;69.06
38780;BME280;29273;49.962;9.768;2022-11-09T08:05:20;99485.72;;;13.75;69.50
38780;BME280;29273;49.962;9.768;2022-11-09T08:07:45;99486.50;;;13.75;69.20
38780;BME280;29273;49.962;9.768;2022-11-09T08:10:12;99496.69;;;13.78;69.29
38780;BME280;29273;49.962;9.768;2022-11-09T08:12:37;99490.34;;;13.79;69.51
38780;BME280;29273;49.962;9.768;2022-11-09T08:15:04;99483.75;;;13.82;69.16
38780;BME280;29273;49.962;9.768;2022-11-09T08:17:30;99486.16;;;13.83;69.31
38780;BME280;29273;49.962;9.768;2022-11-09T08:19:56;99481.69;;;13.84;69.43
38780;BME280;29273;49.962;9.768;2022-11-09T08:22:21;99474.28;;;13.86;69.68
38780;BME280;29273;49.962;9.768;2022-11-09T08:24:47;99472.19;;;13.88;69.44
38780;BME280;29273;49.962;9.768;2022-11-09T08:27:12;99481.56;;;13.91;69.71
38780;BME280;29273;49.962;9.768;2022-11-09T08:29:38;99470.44;;;13.94;69.52
38780;BME280;29273;49.962;9.768;2022-11-09T08:32:03;99463.84;;;13.96;69.79
38780;BME280;29273;49.962;9.768;2022-11-09T08:34:29;99457.22;;;13.99;69.93
38780;BME280;29273;49.962;9.768;2022-11-09T08:36:58;99460.38;;;14.07;69.15
38780;BME280;29273;49.962;9.768;2022-11-09T08:39:24;99464.06;;;14.06;69.97
38780;BME280;29273;49.962;9.768;2022-11-09T08:41:49;99471.81;;;14.08;69.71
38780;BME280;29273;49.962;9.768;2022-11-09T08:44:14;99468.69;;;14.11;70.01
38780;BME280;29273;49.962;9.768;2022-11-09T08:46:40;99469.03;;;14.15;69.97
38780;BME280;29273;49.962;9.768;2022-11-09T08:49:05;99466.94;;;14.17;69.90
38780;BME280;29273;49.962;9.768;2022-11-09T08:51:31;99464.88;;;14.19;70.10
38780;BME280;29273;49.962;9.768;2022-11-09T08:53:56;99452.94;;;14.21;69.71
38780;BME280;29273;49.962;9.768;2022-11-09T08:56:22;99458.03;;;14.23;69.75
38780;BME280;29273;49.962;9.768;2022-11-09T08:58:47;99456.75;;;14.25;69.93
38780;BME280;29273;49.962;9.768;2022-11-09T09:01:13;99460.78;;;14.28;70.05
38780;BME280;29273;49.962;9.768;2022-11-09T09:03:38;99461.38;;;14.30;69.87
38780;BME280;29273;49.962;9.768;2022-11-09T09:06:05;99460.09;;;14.33;69.96
38780;BME280;29273;49.962;9.768;2022-11-09T09:08:31;99456.38;;;14.34;69.86
38780;BME280;29273;49.962;9.768;2022-11-09T09:11:00;99463.44;;;14.40;69.60
38780;BME280;29273;49.962;9.768;2022-11-09T09:13:26;99475.38;;;14.37;70.11
38780;BME280;29273;49.962;9.768;2022-11-09T09:15:51;99477.81;;;14.39;69.89
38780;BME280;29273;49.962;9.768;2022-11-09T09:18:17;99478.16;;;14.42;69.84
38780;BME280;29273;49.962;9.768;2022-11-09T09:20:42;99475.25;;;14.44;70.13
38780;BME280;29273;49.962;9.768;2022-11-09T09:23:08;99477.47;;;14.47;70.29
38780;BME280;29273;49.962;9.768;2022-11-09T09:25:33;99483.13;;;14.51;69.92
38780;BME280;29273;49.962;9.768;2022-11-09T09:27:59;99487.16;;;14.53;70.26
38780;BME280;29273;49.962;9.768;2022-11-09T09:30:24;99490.16;;;14.57;69.89
38780;BME280;29273;49.962;9.768;2022-11-09T09:32:50;99489.91;;;14.58;69.88
38780;BME280;29273;49.962;9.768;2022-11-09T09:35:15;99492.16;;;14.61;69.95
38780;BME280;29273;49.962;9.768;2022-11-09T09:37:42;99494.59;;;14.63;69.85
38780;BME280;29273;49.962;9.768;2022-11-09T09:40:21;99498.75;;;14.71;68.82
38780;BME280;29273;49.962;9.768;2022-11-09T09:42:48;99502.09;;;14.66;69.67
38780;BME280;29273;49.962;9.768;2022-11-09T09:45:22;99504.63;;;14.73;69.32
38780;BME280;29273;49.962;9.768;2022-11-09T09:47:58;99504.19;;;14.76;69.06
38780;BME280;29273;49.962;9.768;2022-11-09T09:50:32;99509.28;;;14.77;69.28
38780;BME280;29273;49.962;9.768;2022-11-09T09:53:25;99512.97;;;14.76;69.17
38780;BME280;29273;49.962;9.768;2022-11-09T09:55:54;99518.63;;;14.80;69.68
38780;BME280;29273;49.962;9.768;2022-11-09T09:58:26;99535.56;;;14.86;69.43
38780;BME280;29273;49.962;9.768;2022-11-09T10:00:56;99534.50;;;14.87;69.64
38780;BME280;29273;49.962;9.768;2022-11-09T10:03:23;99530.69;;;14.83;69.84
38780;BME280;29273;49.962;9.768;2022-11-09T10:17:17;99520.31;;;14.98;68.83
38780;BME280;29273;49.962;9.768;2022-11-09T10:22:44;99515.19;;;15.08;68.47
38780;BME280;29273;49.962;9.768;2022-11-09T10:25:26;99511.25;;;15.11;68.97
38780;BME280;29273;49.962;9.768;2022-11-09T10:27:57;99515.88;;;15.15;68.96
38780;BME280;29273;49.962;9.768;2022-11-09T10:30:25;99510.66;;;15.09;69.07
38780;BME280;29273;49.962;9.768;2022-11-09T10:38:41;99502.84;;;15.19;67.94
38780;BME280;29273;49.962;9.768;2022-11-09T10:41:30;99501.78;;;15.20;68.19
38780;BME280;29273;49.962;9.768;2022-11-09T10:44:17;99501.31;;;15.23;68.52
38780;BME280;29273;49.962;9.768;2022-11-09T10:49:45;99499.44;;;15.24;67.86
38780;BME280;29273;49.962;9.768;2022-11-09T10:52:48;99506.31;;;15.20;67.97
38780;BME280;29273;49.962;9.768;2022-11-09T10:55:32;99508.03;;;15.26;68.03
38780;BME280;29273;49.962;9.768;2022-11-09T11:01:35;99501.84;;;15.37;67.99
38780;BME280;29273;49.962;9.768;2022-11-09T11:04:21;99505.19;;;15.15;68.45
38780;BME280;29273;49.962;9.768;2022-11-09T11:07:13;99491.97;;;15.38;67.78
38780;BME280;29273;49.962;9.768;2022-11-09T11:13:17;99489.28;;;15.38;67.39
38780;BME280;29273;49.962;9.768;2022-11-09T11:16:13;99481.47;;;15.48;67.00
38780;BME280;29273;49.962;9.768;2022-11-09T11:18:57;99479.28;;;15.45;67.44
38780;BME280;29273;49.962;9.768;2022-11-09T11:21:41;99483.31;;;15.47;67.16
38780;BME280;29273;49.962;9.768;2022-11-09T11:24:25;99472.97;;;15.51;67.05
38780;BME280;29273;49.962;9.768;2022-11-09T11:30:09;99468.75;;;15.55;66.74
38780;BME280;29273;49.962;9.768;2022-11-09T11:32:55;99462.94;;;15.58;66.49
38780;BME280;29273;49.962;9.768;2022-11-09T11:36:01;99474.16;;;15.60;66.66
38780;BME280;29273;49.962;9.768;2022-11-09T11:41:53;99471.69;;;15.70;66.00
38780;BME280;29273;49.962;9.768;2022-11-09T11:50:44;99462.28;;;15.68;65.27
38780;BME280;29273;49.962;9.768;2022-11-09T11:53:45;99478.25;;;15.80;65.44
38780;BME280;29273;49.962;9.768;2022-11-09T11:56:40;99476.38;;;15.80;65.56
38780;BME280;29273;49.962;9.768;2022-11-09T11:59:40;99480.69;;;15.81;65.97
38780;BME280;29273;49.962;9.768;2022-11-09T12:02:54;99478.09;;;15.86;65.92
38780;BME280;29273;49.962;9.768;2022-11-09T12:09:06;99474.69;;;15.91;65.74
38780;BME280;29273;49.962;9.768;2022-11-09T12:15:54;99472.41;;;16.00;65.82
38780;BME280;29273;49.962;9.768;2022-11-09T12:19:03;99457.50;;;16.04;65.73
38780;BME280;29273;49.962;9.768;2022-11-09T12:28:04;99446.97;;;16.14;65.50
38780;BME280;29273;49.962;9.768;2022-11-09T12:31:12;99449.16;;;16.17;65.32
38780;BME280;29273;49.962;9.768;2022-11-09T12:34:17;99458.19;;;16.16;64.79
38780;BME280;29273;49.962;9.768;2022-11-09T12:37:12;99463.84;;;16.20;64.44
38780;BME280;29273;49.962;9.768;2022-11-09T12:40:11;99460.38;;;16.19;64.68
38780;BME280;29273;49.962;9.768;2022-11-09T12:43:01;99459.31;;;16.20;64.79
38780;BME280;29273;49.962;9.768;2022-11-09T12:45:46;99460.38;;;16.19;64.33
38780;BME280;29273;49.962;9.768;2022-11-09T12:48:34;99460.94;;;16.21;63.85
38780;BME280;29273;49.962;9.768;2022-11-09T12:51:18;99461.97;;;16.20;63.81
38780;BME280;29273;49.962;9.768;2022-11-09T12:54:05;99464.41;;;16.22;63.52
38780;BME280;29273;49.962;9.768;2022-11-09T12:56:58;99477.53;;;16.23;64.06
38780;BME280;29273;49.962;9.768;2022-11-09T12:59:48;99475.44;;;16.25;63.97
38780;BME280;29273;49.962;9.768;2022-11-09T13:02:37;99467.66;;;16.24;64.16
38780;BME280;29273;49.962;9.768;2022-11-09T13:05:33;99455.09;;;16.24;64.27
38780;BME280;29273;49.962;9.768;2022-11-09T13:08:28;99458.56;;;16.25;64.43
38780;BME280;29273;49.962;9.768;2022-11-09T13:23:31;99442.59;;;16.30;64.29
38780;BME280;29273;49.962;9.768;2022-11-09T13:32:26;99458.16;;;16.33;64.09
38780;BME280;29273;49.962;9.768;2022-11-09T13:35:55;99459.47;;;16.31;64.35
38780;BME280;29273;49.962;9.768;2022-11-09T13:38:35;99468.78;;;16.28;63.79
38780;BME280;29273;49.962;9.768;2022-11-09T13:44:17;99466.16;;;16.33;64.25
38780;BME280;29273;49.962;9.768;2022-11-09T13:47:02;99465.84;;;16.30;64.09
38780;BME280;29273;49.962;9.768;2022-11-09T13:49:48;99461.91;;;16.32;64.24
38780;BME280;29273;49.962;9.768;2022-11-09T13:55:39;99468.59;;;16.35;63.94
38780;BME280;29273;49.962;9.768;2022-11-09T13:58:29;99465.38;;;16.33;63.86
38780;BME280;29273;49.962;9.768;2022-11-09T14:01:26;99470.44;;;16.12;64.70
38780;BME280;29273;49.962;9.768;2022-11-09T14:07:27;99472.84;;;16.31;63.63
38780;BME280;29273;49.962;9.768;2022-11-09T14:10:41;99465.84;;;16.30;63.87
38780;BME280;29273;49.962;9.768;2022-11-09T14:13:43;99472.00;;;16.30;63.83
38780;BME280;29273;49.962;9.768;2022-11-09T14:16:50;99473.56;;;16.26;64.03
38780;BME280;29273;49.962;9.768;2022-11-09T14:22:32;99471.69;;;16.26;63.91
38780;BME280;29273;49.962;9.768;2022-11-09T14:25:19;99469.25;;;16.25;64.09
38780;BME280;29273;49.962;9.768;2022-11-09T14:28:18;99465.56;;;16.26;63.93
38780;BME280;29273;49.962;9.768;2022-11-09T14:31:03;99471.63;;;16.21;64.04
38780;BME280;29273;49.962;9.768;2022-11-09T14:34:00;99466.34;;;16.26;63.97
38780;BME280;29273;49.962;9.768;2022-11-09T14:36:45;99472.66;;;16.20;63.92
38780;BME280;29273;49.962;9.768;2022-11-09T14:39:31;99471.38;;;16.23;64.16
38780;BME280;29273;49.962;9.768;2022-11-09T14:42:21;99473.25;;;16.22;64.08
38780;BME280;29273;49.962;9.768;2022-11-09T14:45:13;99473.00;;;16.24;64.19
38780;BME280;29273;49.962;9.768;2022-11-09T14:47:59;99477.69;;;16.17;63.87
38780;BME280;29273;49.962;9.768;2022-11-09T14:50:43;99478.78;;;16.16;63.90
38780;BME280;29273;49.962;9.768;2022-11-09T14:53:30;99486.53;;;16.17;63.98
38780;BME280;29273;49.962;9.768;2022-11-09T14:56:17;99490.25;;;16.16;64.26